• Join FlightAware (Why Join?)
  • Login
  • US Flag 
07:52PM EDT


 

Airport Tracker/Info


-or-


 

Live Flight TrackerFlight Track Log ✈ JBU1329 ✈ 14-Jun-2013 ✈ KBOS - KBWI

Flight Track Log - Related Links

Times and Time Zones

All times are in EDT time to prevent confusion due to time zone crossing. See the JBU1329 flight status page for this flight to view local times or setup timezone preferences in your user account.

Time Position Orientation Groundspeed Altitude Reporting Facility
EDT Latitude Longitude Course Direction KTS MPH feet Rate Location/Type
09:11AM 42.3667 -70.9667 262° West 139 160 1,000  Level KA90
09:13AM 42.3499 -70.7266 172° South  Level FlightAware Approximate
09:13AM 42.3869 -70.8406 78° East 183 211 5,800  Level Boston Center
09:14AM 42.2612 -70.7749 228° Southwest  Level FlightAware Approximate
09:14AM 42.3733 -70.7539 102° East 218 251 8,900  Level Boston Center
09:15AM 42.1999 -70.8948 240° Southwest  Level FlightAware Approximate
09:15AM 42.2936 -70.7308 168° South 209 241 11,500  Level Boston Center
09:16AM 42.1766 -71.0345 262° West  Level FlightAware Approximate
09:16AM 42.2392 -70.8389 236° Southwest 221 254 13,000  Level Boston Center
09:17AM 42.2181 -70.9739 258° West 304 350 15,500 2,700 Climbing Boston Center
09:18AM 42.1969 -71.1203 259° West 373 429 18,400 2,700 Climbing Boston Center
09:19AM 42.1756 -71.2664 259° West 399 459 20,900 2,760 Climbing Boston Center
09:20AM 42.1558 -71.4011 259° West 393 452 24,000 2,640 Climbing Boston Center
09:21AM 42.1342 -71.5303 257° West 378 435 26,200 1,740 Climbing Boston Center
09:22AM 42.1122 -71.6481 256° West 360 414 27,500 1,260 Climbing Boston Center
09:23AM 42.0900 -71.7883 258° West 365 420 28,800 1,140 Climbing Boston Center
09:24AM 42.0658 -71.9339 257° West 385 443 29,800 1,080 Climbing Boston Center
09:25AM 42.0372 -72.1103 258° West 398 458 31,300 960 Climbing Boston Center
09:26AM 42.0125 -72.2586 257° West 408 470 32,000 300 Climbing Boston Center
09:27AM 41.9897 -72.4178 259° West 408 470 32,000  Level Boston Center
09:28AM 42.0064 -72.5714 278° West 408 470 32,000  Level Boston Center
09:29AM 42.0292 -72.7056 283° West 408 470 32,000  Level Boston Center
09:30AM 42.0453 -72.8539 278° West 408 470 32,000  Level Boston Center
09:31AM 41.9925 -73.0100 246° West 396 456 32,000  Level Boston Center
09:32AM 41.8942 -73.0872 210° Southwest 366 421 32,000  Level Boston Center
09:33AM 41.8000 -73.1642 211° Southwest 380 437 32,000  Level Boston Center
09:34AM 41.7078 -73.2408 212° Southwest 393 452 32,000  Level Boston Center
09:35AM 41.6133 -73.3175 211° Southwest 398 458 32,000  Level Boston Center
09:36AM 41.5317 -73.3803 210° Southwest 389 448 32,000  Level Boston Center
09:37AM 41.4350 -73.4589 211° Southwest 394 453 32,000  Level Boston Center
09:39AM 41.2669 -73.6114 214° Southwest 402 463 32,000  Level New York Center
09:40AM 41.1953 -73.7325 232° Southwest 402 463 32,000  Level New York Center
09:41AM 41.1233 -73.8533 232° Southwest 419 482 32,000  Level New York Center
09:42AM 41.0428 -73.9872 231° Southwest 428 493 32,000  Level New York Center
09:43AM 40.9728 -74.1103 233° Southwest 428 493 32,000 -660 Level New York Center
09:44AM 40.8944 -74.2272 228° Southwest 428 493 30,700 -1,860 Descending New York Center
09:45AM 40.8197 -74.3550 232° Southwest 433 498 28,300 -1,380 Descending New York Center
09:46AM 40.7431 -74.4769 230° Southwest 439 505 28,000 -420 Descending New York Center
09:47AM 40.6681 -74.6042 232° Southwest 439 505 27,500 -1,080 Descending New York Center
09:48AM 40.5911 -74.7256 230° Southwest 434 499 25,900 -1,620 Descending New York Center
09:49AM 40.5144 -74.8411 229° Southwest 434 499 24,300 -1,620 Descending New York Center
09:50AM 40.4333 -74.9536 227° Southwest 429 494 22,700 -1,620 Descending New York Center
09:51AM 40.3564 -75.0633 227° Southwest 424 488 21,100 -1,620 Descending New York Center
09:52AM 40.2794 -75.1731 227° Southwest 424 488 19,500 -1,080 Descending New York Center
09:53AM 40.1981 -75.2847 226° Southwest 429 494 19,000 -300 Descending New York Center
09:54AM 40.1275 -75.3833 227° Southwest 424 488 19,000  Level New York Center
09:55AM 40.0394 -75.5047 227° Southwest 424 488 19,000  Level New York Center
09:56AM 39.9686 -75.6031 227° Southwest 424 488 19,000 -660 Level New York Center
09:57AM 39.8883 -75.7300 231° Southwest 424 488 17,800 -1,440 Descending New York Center
09:58AM 39.8317 -75.8367 235° Southwest 417 480 16,100 -1,740 Descending New York Center
10:00AM 39.6833 -76.1333 237° Southwest 371 427 11,700 -1,680 Descending Potomac TRACON
10:01AM 39.6000 -76.2167 218° Southwest 331 381 10,200 -1,620 Descending Potomac TRACON
10:02AM 39.5333 -76.3000 224° Southwest 316 364 8,400 -1,740 Descending Potomac TRACON
10:03AM 39.4667 -76.3667 218° Southwest 319 367 6,700 -1,740 Descending Potomac TRACON
10:04AM 39.4000 -76.4167 210° Southwest 314 361 5,100 -1,440 Descending Potomac TRACON
10:05AM 39.3167 -76.4333 189° South 300 345 4,000 -600 Descending Potomac TRACON
10:06AM 39.2333 -76.4333 180° South 299 344 4,000  Level Potomac TRACON
10:07AM 39.1500 -76.4333 180° South 300 345 4,000  Level Potomac TRACON
10:08AM 39.0667 -76.4500 189° South 300 345 4,000  Level Potomac TRACON
10:09AM 39.0000 -76.4167 159° South 251 289 4,000  Level Potomac TRACON
10:10AM 38.9667 -76.4667 229° Southwest 205 236 4,000  Level Potomac TRACON
10:11AM 39.0000 -76.5167 311° West 164 189 4,000 -300 Level Potomac TRACON
10:12AM 39.0333 -76.5500 322° Northwest 165 190 3,400 -900 Descending Potomac TRACON
10:13AM 39.0667 -76.5833 322° Northwest 161 185 2,400 -960 Descending Potomac TRACON
10:14AM 39.1000 -76.6167 322° Northwest 156 180 1,500 -840 Descending Potomac TRACON
10:15AM 39.1333 -76.6333 339° North 127 146 800 -720 Descending Potomac TRACON